KGMJ

Details ICAO KGMJ
Name GROVE MUNI
Region United States
Timezone America/Chicago (UTC-6.0)
Plans Departing 3
Arriving 0
Stats Elevation 830 ft / 253 m (AMSL)
Location 36.606713° -94.738569°
Runways 1
Magnetic Variation 1.879° E
Sunrise 2017-12-12 13:23:25 UTC / 2017-12-12 07:23:25 Local
Sunset 2017-12-12 23:05:04 UTC / 2017-12-12 17:05:04 Local
Advertisement - Login to hide

Runways

ID Width Length Bearing (true) Bearing (mag) Surface Threshold Offset Overrun Length
18 75 ft / 23 m 5,262 ft / 1,604 m 179.93° 178.05° Asphalt 0 ft / 0 m 0 ft / 0 m
36 75 ft / 23 m 5,262 ft / 1,604 m 359.93° 358.05° Asphalt 52 ft / 16 m 0 ft / 0 m

Map

Weather


0- 5 10 15 20 25 30 35+ Temperature / ° C

Clouds and Precipitation
Forecast for 2017-12-12 18:00 UTC. Updated 43 minutes ago

Ground ~20,000 ft ~40,000 ft Winds

METAR

KGMJ 121755Z AUTO 34004KT 10SM CLR 04/M07 A3036 RMK AO2

TAF

Not found

Frequencies

Recorded 119.02 MHz AWOS 3
Unicom 122.80 MHz CTAF/UNICOM
Warning: Do not use this data for real-world aviation or navigation. No guarantee of current accuracy is given.